Time,TemperatureF,DewpointF,PressureIn,WindDirection,WindDirectionDegrees,WindSpeedMPH,WindSpeedGustMPH,Humidity,HourlyPrecipIn,Conditions,Clouds,dailyrainin,SolarRadiationWatts/m^2,SoftwareType,DateUTC
2013-11-14 00:21:00,15.0,12.0,-100.00,South,176,1.0,3.0,86,0.00,,,0.00,0.000000,,2013-11-14 09:21:00,
2013-11-14 00:33:00,15.0,12.0,-100.00,South,176,1.0,3.0,86,0.00,,,0.00,0.000000,,2013-11-14 09:33:00,
2013-11-14 00:43:00,15.0,12.0,-100.00,South,176,1.0,3.0,86,0.00,,,0.00,0.000000,,2013-11-14 09:43:00,
2013-11-14 00:52:00,15.0,12.0,-100.00,South,176,1.0,3.0,86,0.00,,,0.00,0.000000,,2013-11-14 09:52:00,
2013-11-14 01:23:00,15.0,12.0,-100.00,SSE,164,1.0,3.0,86,0.00,,,0.00,0.000000,,2013-11-14 10:23:00,
2013-11-14 01:33:00,15.0,12.0,-100.00,SSE,164,1.0,3.0,86,0.00,,,0.00,0.000000,,2013-11-14 10:33:00,
2013-11-14 01:42:00,15.0,12.0,-100.00,SSE,164,1.0,3.0,86,0.00,,,0.00,0.000000,,2013-11-14 10:42:00,
2013-11-14 01:52:00,15.0,12.0,-100.00,SSE,164,1.0,3.0,86,0.00,,,0.00,0.000000,,2013-11-14 10:52:00,
2013-11-14 02:21:00,14.0,11.0,-100.00,SSE,157,1.0,4.0,87,0.00,,,-99.99,0.000000,,2013-11-14 11:21:00,
2013-11-14 02:32:00,14.0,11.0,-100.00,SSE,157,1.0,4.0,87,0.00,,,-99.99,0.000000,,2013-11-14 11:32:00,
2013-11-14 02:42:00,14.0,11.0,-100.00,SSE,157,1.0,4.0,87,0.00,,,-99.99,0.000000,,2013-11-14 11:42:00,
2013-11-14 02:52:00,14.0,11.0,-100.00,SSE,157,1.0,4.0,87,0.00,,,-99.99,0.000000,,2013-11-14 11:52:00,
2013-11-14 03:21:00,14.0,11.0,-100.00,ESE,115,0.0,3.0,87,0.00,,,0.00,0.000000,,2013-11-14 12:21:00,
2013-11-14 03:32:00,14.0,11.0,-100.00,ESE,115,0.0,3.0,87,0.00,,,0.00,0.000000,,2013-11-14 12:32:00,
2013-11-14 03:42:00,14.0,11.0,-100.00,ESE,115,0.0,3.0,87,0.00,,,0.00,0.000000,,2013-11-14 12:42:00,
2013-11-14 04:22:00,15.0,12.0,-100.00,WSW,241,0.0,3.0,87,0.00,,,0.00,0.000000,,2013-11-14 13:22:00,
2013-11-14 04:32:00,15.0,12.0,-100.00,WSW,241,0.0,3.0,87,0.00,,,0.00,0.000000,,2013-11-14 13:32:00,
2013-11-14 04:42:00,15.0,12.0,-100.00,WSW,241,0.0,3.0,87,0.00,,,0.00,0.000000,,2013-11-14 13:42:00,
2013-11-14 04:52:00,15.0,12.0,-100.00,WSW,241,0.0,3.0,87,0.00,,,0.00,0.000000,,2013-11-14 13:52:00,
2013-11-14 05:22:00,15.0,12.0,-100.00,SE,131,0.0,3.0,87,0.00,,,0.00,0.000000,,2013-11-14 14:22:00,
2013-11-14 05:32:00,15.0,12.0,-100.00,SE,131,0.0,3.0,87,0.00,,,0.00,0.000000,,2013-11-14 14:32:00,
2013-11-14 06:21:00,16.0,13.0,-100.00,SSE,149,1.0,5.0,86,0.00,,,0.00,0.000000,,2013-11-14 15:21:00,
2013-11-14 06:33:00,16.0,13.0,-100.00,SSE,149,1.0,5.0,86,0.00,,,0.00,0.000000,,2013-11-14 15:33:00,
2013-11-14 07:23:00,17.0,14.0,-100.00,North,3,0.0,5.0,86,0.00,,,0.00,0.000000,,2013-11-14 16:23:00,
2013-11-14 07:33:00,17.0,14.0,-100.00,North,3,0.0,5.0,86,0.00,,,0.00,0.000000,,2013-11-14 16:33:00,
2013-11-14 07:52:00,17.0,14.0,-100.00,North,3,0.0,5.0,86,0.00,,,0.00,0.000000,,2013-11-14 16:52:00,
2013-11-14 08:22:00,18.0,15.0,-100.00,ENE,64,1.0,4.0,86,0.00,,,-99.99,0.000000,,2013-11-14 17:22:00,
2013-11-14 08:32:00,18.0,15.0,-100.00,ENE,64,1.0,4.0,86,0.00,,,-99.99,0.000000,,2013-11-14 17:32:00,
2013-11-14 08:52:00,18.0,15.0,-100.00,ENE,64,1.0,4.0,86,0.00,,,-99.99,0.000000,,2013-11-14 17:52:00,
2013-11-14 09:21:00,18.0,15.0,-100.00,SSW,203,0.0,3.0,87,0.00,,,0.00,0.000000,,2013-11-14 18:21:00,
2013-11-14 09:33:00,18.0,15.0,-100.00,SSW,203,0.0,3.0,87,0.00,,,0.00,0.000000,,2013-11-14 18:33:00,
2013-11-14 09:52:00,18.0,15.0,-100.00,SSW,203,0.0,3.0,87,0.00,,,0.00,0.000000,,2013-11-14 18:52:00,
2013-11-14 10:21:00,20.0,16.0,-100.00,SE,136,0.0,2.0,86,0.00,,,0.00,3.000000,,2013-11-14 19:21:00,
2013-11-14 10:31:00,20.0,16.0,-100.00,SE,136,0.0,2.0,86,0.00,,,0.00,3.000000,,2013-11-14 19:31:00,
2013-11-14 10:42:00,20.0,16.0,-100.00,SE,136,0.0,2.0,86,0.00,,,0.00,3.000000,,2013-11-14 19:42:00,
2013-11-14 10:52:00,20.0,16.0,-100.00,SE,136,0.0,2.0,86,0.00,,,0.00,3.000000,,2013-11-14 19:52:00,
2013-11-14 11:22:00,22.0,18.0,-100.00,West,270,2.0,4.0,86,0.00,,,0.00,9.000000,,2013-11-14 20:22:00,
2013-11-14 11:32:00,22.0,18.0,-100.00,West,270,2.0,4.0,86,0.00,,,0.00,9.000000,,2013-11-14 20:32:00,
2013-11-14 11:42:00,22.0,18.0,-100.00,West,270,2.0,4.0,86,0.00,,,0.00,9.000000,,2013-11-14 20:42:00,
2013-11-14 11:52:00,22.0,18.0,-100.00,West,270,2.0,4.0,86,0.00,,,0.00,9.000000,,2013-11-14 20:52:00,
2013-11-14 12:22:00,25.0,19.0,-100.00,North,354,2.0,4.0,79,0.00,,,0.00,28.000000,,2013-11-14 21:22:00,
2013-11-14 12:33:00,25.0,19.0,-100.00,North,354,2.0,4.0,79,0.00,,,0.00,28.000000,,2013-11-14 21:33:00,
2013-11-14 12:43:00,25.0,19.0,-100.00,North,354,2.0,4.0,79,0.00,,,0.00,28.000000,,2013-11-14 21:43:00,
2013-11-14 12:53:00,25.0,19.0,-100.00,North,354,2.0,4.0,79,0.00,,,0.00,28.000000,,2013-11-14 21:53:00,
2013-11-14 13:23:00,26.0,21.0,-100.00,West,260,2.0,6.0,82,0.00,,,0.00,31.000000,,2013-11-14 22:23:00,
2013-11-14 13:33:00,26.0,21.0,-100.00,West,260,2.0,6.0,82,0.00,,,0.00,31.000000,,2013-11-14 22:33:00,
2013-11-14 13:43:00,26.0,21.0,-100.00,West,260,2.0,6.0,82,0.00,,,0.00,31.000000,,2013-11-14 22:43:00,
2013-11-14 13:53:00,26.0,21.0,-100.00,West,260,2.0,6.0,82,0.00,,,0.00,31.000000,,2013-11-14 22:53:00,
2013-11-14 14:22:00,26.0,23.0,-100.00,South,183,2.0,8.0,89,0.00,,,0.00,9.000000,,2013-11-14 23:22:00,
2013-11-14 14:33:00,26.0,23.0,-100.00,South,183,2.0,8.0,89,0.00,,,0.00,9.000000,,2013-11-14 23:33:00,
2013-11-14 14:43:00,26.0,23.0,-100.00,South,183,2.0,8.0,89,0.00,,,0.00,9.000000,,2013-11-14 23:43:00,
2013-11-14 14:52:00,26.0,23.0,-100.00,South,183,2.0,8.0,89,0.00,,,0.00,9.000000,,2013-11-14 23:52:00,
2013-11-14 15:21:00,26.0,24.0,-100.00,ENE,72,2.0,5.0,91,0.00,,,0.00,2.000000,,2013-11-15 00:21:00,
2013-11-14 15:32:00,26.0,24.0,-100.00,ENE,72,2.0,5.0,91,0.00,,,0.00,2.000000,,2013-11-15 00:32:00,
2013-11-14 15:42:00,26.0,24.0,-100.00,ENE,72,2.0,5.0,91,0.00,,,0.00,2.000000,,2013-11-15 00:42:00,
2013-11-14 15:52:00,26.0,24.0,-100.00,ENE,72,2.0,5.0,91,0.00,,,0.00,2.000000,,2013-11-15 00:52:00,
2013-11-14 16:22:00,27.0,24.0,-100.00,NE,45,1.0,8.0,87,0.00,,,0.00,0.000000,,2013-11-15 01:22:00,
2013-11-14 16:32:00,27.0,24.0,-100.00,NE,45,1.0,8.0,87,0.00,,,0.00,0.000000,,2013-11-15 01:32:00,
2013-11-14 16:42:00,27.0,24.0,-100.00,NE,45,1.0,8.0,87,0.00,,,0.00,0.000000,,2013-11-15 01:42:00,
2013-11-14 16:52:00,27.0,24.0,-100.00,NE,45,1.0,8.0,87,0.00,,,0.00,0.000000,,2013-11-15 01:52:00,
2013-11-14 17:22:00,24.0,22.0,-100.00,NW,310,0.0,4.0,92,0.00,,,0.00,0.000000,,2013-11-15 02:22:00,
2013-11-14 17:32:00,24.0,22.0,-100.00,NW,310,0.0,4.0,92,0.00,,,0.00,0.000000,,2013-11-15 02:32:00,
2013-11-14 17:42:00,24.0,22.0,-100.00,NW,310,0.0,4.0,92,0.00,,,0.00,0.000000,,2013-11-15 02:42:00,
2013-11-14 17:52:00,24.0,22.0,-100.00,NW,310,0.0,4.0,92,0.00,,,0.00,0.000000,,2013-11-15 02:52:00,
2013-11-14 18:21:00,22.0,20.0,-100.00,South,179,2.0,3.0,93,0.00,,,0.00,0.000000,,2013-11-15 03:21:00,
2013-11-14 18:33:00,22.0,20.0,-100.00,South,179,2.0,3.0,93,0.00,,,0.00,0.000000,,2013-11-15 03:33:00,
2013-11-14 18:44:00,22.0,20.0,-100.00,South,179,2.0,3.0,93,0.00,,,0.00,0.000000,,2013-11-15 03:44:00,
2013-11-14 18:54:00,22.0,20.0,-100.00,South,179,2.0,3.0,93,0.00,,,0.00,0.000000,,2013-11-15 03:54:00,
2013-11-14 19:23:00,20.0,18.0,-100.00,SW,219,1.0,5.0,90,0.00,,,0.00,0.000000,,2013-11-15 04:23:00,
2013-11-14 19:33:00,20.0,18.0,-100.00,SW,219,1.0,5.0,90,0.00,,,0.00,0.000000,,2013-11-15 04:33:00,
2013-11-14 19:42:00,20.0,18.0,-100.00,SW,219,1.0,5.0,90,0.00,,,0.00,0.000000,,2013-11-15 04:42:00,
2013-11-14 19:53:00,20.0,18.0,-100.00,SW,219,1.0,5.0,90,0.00,,,0.00,0.000000,,2013-11-15 04:53:00,
2013-11-14 20:22:00,16.0,14.0,-100.00,SSE,163,0.0,3.0,90,0.00,,,0.00,0.000000,,2013-11-15 05:22:00,
2013-11-14 20:33:00,16.0,14.0,-100.00,SSE,163,0.0,3.0,90,0.00,,,0.00,0.000000,,2013-11-15 05:33:00,
2013-11-14 20:43:00,16.0,14.0,-100.00,SSE,163,0.0,3.0,90,0.00,,,0.00,0.000000,,2013-11-15 05:43:00,
2013-11-14 20:53:00,16.0,14.0,-100.00,SSE,163,0.0,3.0,90,0.00,,,0.00,0.000000,,2013-11-15 05:53:00,
2013-11-14 21:23:00,15.0,12.0,-100.00,SSE,163,0.0,2.0,88,0.00,,,0.00,0.000000,,2013-11-15 06:23:00,
2013-11-14 21:32:00,15.0,12.0,-100.00,SSE,163,0.0,2.0,88,0.00,,,0.00,0.000000,,2013-11-15 06:32:00,
2013-11-14 21:43:00,15.0,12.0,-100.00,SSE,163,0.0,2.0,88,0.00,,,0.00,0.000000,,2013-11-15 06:43:00,
2013-11-14 21:53:00,15.0,12.0,-100.00,SSE,163,0.0,2.0,88,0.00,,,0.00,0.000000,,2013-11-15 06:53:00,
2013-11-14 22:21:00,12.0,9.0,-100.00,NNW,330,0.0,4.0,87,0.00,,,0.00,0.000000,,2013-11-15 07:21:00,
2013-11-14 22:32:00,12.0,9.0,-100.00,NNW,330,0.0,4.0,87,0.00,,,0.00,0.000000,,2013-11-15 07:32:00,
2013-11-14 22:42:00,12.0,9.0,-100.00,NNW,330,0.0,4.0,87,0.00,,,0.00,0.000000,,2013-11-15 07:42:00,
2013-11-14 23:42:00,9.0,5.0,-100.00,South,190,0.0,2.0,84,0.00,,,0.00,0.000000,,2013-11-15 08:42:00,